Time;durP1;ratioP1;P1;durP2;ratioP2;P2;SDS_P1;SDS_P2;PMS_P1;PMS_P2;Temp;Humidity;BMP_temperature;BMP_pressure;BME280_temperature;BME280_humidity;BME280_pressure;Samples;Min_cycle;Max_cycle;Signal;HPM_P1;HPM_P2
2021/05/21 00:00:10;;;;;;;0.40;0.40;;;;;;;11.73;100.00;100134.56;1746053;81;21492;-47
2021/05/21 00:02:37;;;;;;;3.25;1.00;;;;;;;11.67;100.00;100139.83;1695547;83;21623;-46
2021/05/21 00:05:04;;;;;;;2.60;0.65;;;;;;;11.58;100.00;100132.85;1751142;81;21177;-47
2021/05/21 00:07:31;;;;;;;0.88;0.65;;;;;;;11.49;100.00;100132.67;1746295;81;21528;-47
2021/05/21 00:09:57;;;;;;;0.90;0.85;;;;;;;11.42;100.00;100137.69;1714696;82;21058;-47
2021/05/21 00:12:24;;;;;;;1.27;0.62;;;;;;;11.36;100.00;100145.70;1719299;82;21042;-40
2021/05/21 00:14:52;;;;;;;3.08;0.93;;;;;;;11.29;100.00;100144.68;1733053;81;21078;-47
2021/05/21 00:17:18;;;;;;;0.85;0.57;;;;;;;11.24;100.00;100148.04;1747358;81;21058;-42
2021/05/21 00:19:46;;;;;;;0.95;0.85;;;;;;;11.14;100.00;100138.83;1717261;82;21015;-47
2021/05/21 00:22:13;;;;;;;0.70;0.70;;;;;;;11.10;100.00;100143.27;1733047;82;21904;-47
2021/05/21 00:24:39;;;;;;;0.75;0.75;;;;;;;11.05;100.00;100147.41;1746699;81;21038;-42
2021/05/21 00:27:07;;;;;;;2.20;0.68;;;;;;;11.02;100.00;100149.36;1748136;81;21050;-42
2021/05/21 00:29:34;;;;;;;1.17;0.45;;;;;;;10.99;100.00;100145.84;1748393;81;21079;-47
2021/05/21 00:32:01;;;;;;;1.37;0.93;;;;;;;10.97;100.00;100158.42;1753086;81;21114;-47
2021/05/21 00:34:27;;;;;;;0.93;0.90;;;;;;;10.93;100.00;100153.28;1744915;81;21117;-47
2021/05/21 00:36:54;;;;;;;0.57;0.57;;;;;;;10.89;100.00;100160.42;1749755;81;21034;-47
2021/05/21 00:39:21;;;;;;;0.78;0.45;;;;;;;10.84;100.00;100155.57;1727097;81;21239;-42
2021/05/21 00:41:47;;;;;;;1.30;0.70;;;;;;;10.76;100.00;100155.09;1750204;80;21023;-47
2021/05/21 00:44:14;;;;;;;0.90;0.70;;;;;;;10.70;100.00;100148.58;1749245;81;20990;-41
2021/05/21 00:46:41;;;;;;;0.45;0.45;;;;;;;10.63;100.00;100150.30;1749161;81;21026;-47
2021/05/21 00:49:07;;;;;;;0.30;0.30;;;;;;;10.58;100.00;100159.88;1747587;81;21022;-47
2021/05/21 00:51:33;;;;;;;0.62;0.62;;;;;;;10.54;100.00;100156.11;1750240;81;21102;-46
2021/05/21 00:54:00;;;;;;;0.35;0.35;;;;;;;10.51;100.00;100152.59;1746255;82;21368;-47
2021/05/21 00:56:27;;;;;;;0.53;0.53;;;;;;;10.46;100.00;100156.70;1744339;80;21528;-46
2021/05/21 00:58:54;;;;;;;0.50;0.50;;;;;;;10.42;100.00;100150.20;1750390;81;21070;-42
2021/05/21 01:01:21;;;;;;;0.98;0.98;;;;;;;10.39;100.00;100156.24;1746685;81;21030;-46
2021/05/21 01:03:47;;;;;;;0.55;0.53;;;;;;;10.36;100.00;100158.16;1747568;81;21097;-41
2021/05/21 01:06:14;;;;;;;0.35;0.35;;;;;;;10.32;100.00;100153.27;1746561;81;21615;-42
2021/05/21 01:08:40;;;;;;;1.32;0.62;;;;;;;10.28;100.00;100157.66;1732377;81;21122;-41
2021/05/21 01:11:09;;;;;;;1.32;0.78;;;;;;;10.26;100.00;100158.48;1721653;81;21058;-41
2021/05/21 01:13:37;;;;;;;0.78;0.78;;;;;;;10.25;100.00;100154.11;1745142;81;21552;-44
2021/05/21 01:16:04;;;;;;;0.50;0.50;;;;;;;10.26;100.00;100154.91;1749377;81;21034;-46
2021/05/21 01:18:31;;;;;;;1.72;1.05;;;;;;;10.25;100.00;100159.56;1748317;81;21034;-41
2021/05/21 01:20:58;;;;;;;1.50;0.65;;;;;;;10.25;100.00;100150.01;1745480;81;21917;-41
2021/05/21 01:23:25;;;;;;;1.65;0.40;;;;;;;10.24;100.00;100149.76;1715064;83;21453;-41
2021/05/21 01:25:51;;;;;;;2.33;0.85;;;;;;;10.25;100.00;100151.38;1707573;83;21031;-41
2021/05/21 01:28:19;;;;;;;1.30;0.90;;;;;;;10.24;100.00;100147.03;1747391;81;21563;-46
2021/05/21 01:30:46;;;;;;;0.35;0.35;;;;;;;10.24;100.00;100149.76;1736467;81;21133;-41
2021/05/21 01:33:12;;;;;;;0.95;0.95;;;;;;;10.22;100.00;100154.69;1743433;81;21501;-47
2021/05/21 01:35:39;;;;;;;0.20;0.20;;;;;;;10.21;100.00;100148.13;1747866;81;21098;-41
2021/05/21 01:38:06;;;;;;;0.65;0.65;;;;;;;10.20;100.00;100151.97;1744553;81;21054;-47
2021/05/21 01:40:32;;;;;;;0.50;0.50;;;;;;;10.18;100.00;100157.70;1746009;81;21587;-41
2021/05/21 01:43:00;;;;;;;0.70;0.68;;;;;;;10.17;100.00;100148.45;1707713;81;21030;-41
2021/05/21 01:45:28;;;;;;;0.23;0.23;;;;;;;10.13;100.00;100153.09;1747678;81;21465;-42
2021/05/21 01:47:54;;;;;;;0.62;0.62;;;;;;;10.11;100.00;100157.20;1746286;81;21098;-46
2021/05/21 01:50:21;;;;;;;0.40;0.40;;;;;;;10.10;100.00;100161.05;1745346;81;21101;-42
2021/05/21 01:52:47;;;;;;;1.05;1.05;;;;;;;10.07;100.00;100160.25;1749359;80;20983;-46
2021/05/21 01:55:14;;;;;;;0.23;0.23;;;;;;;10.06;100.00;100164.06;1749522;81;21102;-41
2021/05/21 01:57:41;;;;;;;0.37;0.37;;;;;;;10.04;100.00;100158.91;1747254;81;21051;-41
2021/05/21 02:00:10;;;;;;;0.35;0.20;;;;;;;10.03;100.00;100164.64;1733310;81;21071;-42
2021/05/21 02:02:40;;;;;;;0.72;0.72;;;;;;;10.02;100.00;100157.00;1747213;81;21054;-41
2021/05/21 02:05:08;;;;;;;0.40;0.40;;;;;;;10.00;100.00;100166.58;1749490;81;21062;-46
2021/05/21 02:07:36;;;;;;;0.35;0.35;;;;;;;9.96;100.00;100162.77;1749538;81;21377;-41
2021/05/21 02:10:09;;;;;;;0.45;0.33;;;;;;;9.94;100.00;100160.86;1742121;81;21030;-41
2021/05/21 02:12:36;;;;;;;0.40;0.20;;;;;;;9.90;100.00;100168.26;1750032;81;21406;-45
2021/05/21 02:15:06;;;;;;;0.37;0.37;;;;;;;9.88;100.00;100171.00;1749437;81;21038;-46
2021/05/21 02:17:33;;;;;;;0.62;0.62;;;;;;;9.84;100.00;100183.05;1748738;81;21094;-42
2021/05/21 02:20:01;;;;;;;0.45;0.40;;;;;;;9.81;100.00;100179.48;1719371;82;21746;-41
2021/05/21 02:22:29;;;;;;;0.23;0.23;;;;;;;9.75;100.00;100179.26;1720833;83;21552;-41
2021/05/21 02:24:58;;;;;;;0.10;0.10;;;;;;;9.71;100.00;100190.45;1742409;81;21038;-46
2021/05/21 02:27:24;;;;;;;0.72;0.72;;;;;;;9.67;100.00;100183.39;1744701;81;21021;-46
2021/05/21 02:29:51;;;;;;;0.10;0.10;;;;;;;9.64;100.00;100187.20;1747835;81;21544;-42
2021/05/21 02:32:18;;;;;;;1.65;0.93;;;;;;;9.63;100.00;100182.86;1748007;81;21006;-46
2021/05/21 02:34:45;;;;;;;1.62;0.60;;;;;;;9.62;100.00;100186.70;1746850;81;21065;-41
2021/05/21 02:37:13;;;;;;;0.88;0.42;;;;;;;9.59;100.00;100184.50;1749265;81;21161;-45
2021/05/21 02:39:40;;;;;;;0.10;0.10;;;;;;;9.59;100.00;100182.59;1744760;81;21648;-42
2021/05/21 02:42:09;;;;;;;2.40;1.17;;;;;;;9.62;100.00;100186.70;1750614;81;21086;-46
2021/05/21 02:44:35;;;;;;;0.40;0.40;;;;;;;9.67;100.00;100192.13;1749312;82;21914;-46
2021/05/21 02:47:02;;;;;;;0.80;0.42;;;;;;;9.70;100.00;100194.30;1749254;81;21027;-41
2021/05/21 02:49:29;;;;;;;0.40;0.40;;;;;;;9.73;100.00;100198.38;1732787;81;21974;-41
2021/05/21 02:51:56;;;;;;;0.17;0.17;;;;;;;9.76;100.00;100201.34;1747080;81;21535;-46
2021/05/21 02:54:23;;;;;;;0.10;0.10;;;;;;;9.83;100.00;100203.78;1744663;81;21089;-41
2021/05/21 02:56:50;;;;;;;1.25;0.65;;;;;;;9.93;100.00;100204.28;1734400;81;21571;-42
2021/05/21 02:59:16;;;;;;;1.20;0.30;;;;;;;10.06;100.00;100200.92;1749084;81;21035;-41
2021/05/21 03:01:42;;;;;;;0.40;0.40;;;;;;;10.22;100.00;100205.20;1737698;81;21041;-43
2021/05/21 03:04:10;;;;;;;0.35;0.33;;;;;;;10.40;100.00;100216.03;1746585;81;21001;-41
2021/05/21 03:06:36;;;;;;;0.42;0.30;;;;;;;10.64;100.00;100212.03;1746688;81;21150;-46
2021/05/21 03:09:03;;;;;;;0.00;0.00;;;;;;;10.91;100.00;100212.09;1725015;81;21628;-45
2021/05/21 03:11:32;;;;;;;0.10;0.10;;;;;;;11.15;100.00;100215.69;1744211;81;21901;-41
2021/05/21 03:13:58;;;;;;;0.05;0.05;;;;;;;11.40;100.00;100223.36;1744697;81;21085;-42
2021/05/21 03:16:25;;;;;;;0.30;0.30;;;;;;;11.59;100.00;100228.88;1744980;81;21022;-47
2021/05/21 03:18:53;;;;;;;0.20;0.20;;;;;;;11.76;100.00;100227.85;1746548;81;21049;-42
2021/05/21 03:21:20;;;;;;;0.28;0.28;;;;;;;11.88;100.00;100233.50;1747424;81;21081;-47
2021/05/21 03:23:46;;;;;;;4.85;1.20;;;;;;;11.97;100.00;100236.67;1749050;81;21552;-45
2021/05/21 03:26:14;;;;;;;0.20;0.20;;;;;;;12.04;100.00;100238.49;1748109;81;21067;-42
2021/05/21 03:28:41;;;;;;;0.20;0.20;;;;;;;12.12;100.00;100243.86;1749496;81;21337;-42
2021/05/21 03:31:09;;;;;;;0.53;0.53;;;;;;;12.19;99.78;100251.16;1740713;81;21109;-47
2021/05/21 03:33:36;;;;;;;0.30;0.30;;;;;;;12.25;98.41;100245.86;1717275;81;21085;-47
2021/05/21 03:36:05;;;;;;;0.42;0.42;;;;;;;12.29;97.69;100257.06;1748490;81;21418;-47
2021/05/21 03:38:32;;;;;;;0.10;0.10;;;;;;;12.34;96.28;100254.25;1725240;81;21106;-47
2021/05/21 03:41:00;;;;;;;0.20;0.20;;;;;;;12.34;94.93;100266.58;1746112;81;21023;-46
2021/05/21 03:43:27;;;;;;;0.13;0.13;;;;;;;12.34;93.91;100266.58;1750378;81;21046;-45
2021/05/21 03:45:53;;;;;;;0.45;0.42;;;;;;;12.34;93.14;100265.20;1749671;81;21030;-47
2021/05/21 03:48:20;;;;;;;0.00;0.00;;;;;;;12.36;91.83;100267.63;1745397;81;21568;-42
2021/05/21 03:50:47;;;;;;;0.50;0.40;;;;;;;12.36;91.14;100264.89;1747005;81;21047;-47
2021/05/21 03:53:15;;;;;;;0.20;0.20;;;;;;;12.38;90.92;100267.59;1744920;81;21018;-47
2021/05/21 03:55:43;;;;;;;0.17;0.17;;;;;;;12.41;90.75;100263.45;1745156;81;21054;-41
2021/05/21 03:58:10;;;;;;;0.10;0.10;;;;;;;12.47;90.93;100279.53;1748888;81;21078;-47
2021/05/21 04:00:37;;;;;;;0.05;0.05;;;;;;;12.54;91.00;100272.88;1741305;81;21586;-41
2021/05/21 04:03:08;;;;;;;0.30;0.30;;;;;;;12.66;90.74;100273.22;1710276;81;21104;-41
2021/05/21 04:05:35;;;;;;;0.10;0.10;;;;;;;12.79;89.72;100268.92;1717501;82;21010;-47
2021/05/21 04:08:02;;;;;;;0.10;0.10;;;;;;;12.90;88.95;100269.00;1716792;81;21061;-41
2021/05/21 04:10:29;;;;;;;0.40;0.37;;;;;;;12.96;88.98;100274.68;1742512;81;21614;-47
2021/05/21 04:12:55;;;;;;;0.30;0.30;;;;;;;12.96;86.45;100271.09;1743924;81;21029;-42
2021/05/21 04:15:22;;;;;;;0.10;0.10;;;;;;;12.89;84.41;100272.31;1748054;81;21051;-47
2021/05/21 04:17:49;;;;;;;0.10;0.10;;;;;;;12.85;83.49;100272.64;1748569;81;21026;-47
2021/05/21 04:20:19;;;;;;;1.30;0.30;;;;;;;12.86;83.47;100270.17;1747119;81;21204;-43
2021/05/21 04:22:46;;;;;;;0.70;0.70;;;;;;;12.89;83.60;100279.17;1750531;81;21567;-47
2021/05/21 04:25:13;;;;;;;0.10;0.10;;;;;;;12.97;83.26;100276.86;1730775;81;21082;-44
2021/05/21 04:27:39;;;;;;;0.23;0.23;;;;;;;13.06;82.60;100284.67;1719228;82;21111;-47
2021/05/21 04:30:08;;;;;;;0.20;0.20;;;;;;;13.13;82.04;100275.50;1746754;81;21038;-42
2021/05/21 04:32:34;;;;;;;0.70;0.25;;;;;;;13.18;81.55;100275.94;1747707;81;21560;-47
2021/05/21 04:35:01;;;;;;;1.10;0.70;;;;;;;13.24;80.91;100276.94;1703635;83;21032;-42
2021/05/21 04:37:28;;;;;;;0.30;0.30;;;;;;;13.32;80.64;100279.57;1702376;83;21012;-47
2021/05/21 04:39:54;;;;;;;0.30;0.30;;;;;;;13.47;80.38;100274.36;1748615;81;21047;-48
2021/05/21 04:42:21;;;;;;;0.17;0.17;;;;;;;13.67;79.23;100279.45;1749057;81;21063;-43
2021/05/21 04:44:47;;;;;;;0.30;0.28;;;;;;;13.87;77.41;100285.67;1749069;81;21042;-47
2021/05/21 04:47:15;;;;;;;0.08;0.08;;;;;;;14.01;76.29;100283.73;1735017;81;21050;-47
2021/05/21 04:49:42;;;;;;;0.45;0.45;;;;;;;14.19;77.06;100281.98;1739162;81;21654;-47
2021/05/21 04:52:09;;;;;;;0.10;0.10;;;;;;;14.39;75.83;100288.97;1746148;81;21094;-41
2021/05/21 04:54:38;;;;;;;0.28;0.28;;;;;;;14.53;74.45;100287.04;1752718;81;21066;-47
2021/05/21 04:57:05;;;;;;;0.10;0.10;;;;;;;14.66;72.37;100287.31;1744151;81;21055;-47
2021/05/21 04:59:32;;;;;;;0.00;0.00;;;;;;;14.73;70.89;100294.56;1743071;81;21101;-42
2021/05/21 05:01:59;;;;;;;0.00;0.00;;;;;;;14.73;71.09;100301.44;1746040;81;21023;-47
2021/05/21 05:04:25;;;;;;;0.30;0.30;;;;;;;14.76;70.87;100299.44;1745309;81;21061;-42
2021/05/21 05:06:53;;;;;;;0.20;0.20;;;;;;;14.87;70.34;100308.28;1743597;81;21544;-42
2021/05/21 05:09:20;;;;;;;0.20;0.20;;;;;;;15.07;70.91;100304.22;1733776;81;21066;-47
2021/05/21 05:11:47;;;;;;;0.50;0.50;;;;;;;15.25;70.00;100300.45;1750094;81;21055;-42
2021/05/21 05:14:13;;;;;;;0.40;0.40;;;;;;;15.43;70.81;100303.56;1744656;81;21630;-41
2021/05/21 05:16:40;;;;;;;0.15;0.10;;;;;;;15.61;68.78;100300.91;1742222;81;21039;-47
2021/05/21 05:19:07;;;;;;;0.10;0.10;;;;;;;15.77;67.63;100296.61;1727879;81;21089;-42
2021/05/21 05:21:37;;;;;;;0.00;0.00;;;;;;;15.84;66.66;100296.97;1738391;81;21522;-42
2021/05/21 05:24:05;;;;;;;0.20;0.20;;;;;;;15.87;66.43;100294.98;1729943;80;21138;-42
2021/05/21 05:26:32;;;;;;;2.30;0.42;;;;;;;15.91;66.46;100299.27;1750729;80;21054;-42
2021/05/21 05:28:59;;;;;;;0.23;0.23;;;;;;;15.96;66.43;100296.38;1738482;81;21036;-47
2021/05/21 05:31:25;;;;;;;0.00;0.00;;;;;;;16.03;67.32;100297.29;1694597;83;21063;-47
2021/05/21 05:33:52;;;;;;;0.00;0.00;;;;;;;16.17;65.49;100295.77;1704012;83;21644;-42
2021/05/21 05:36:18;;;;;;;0.57;0.57;;;;;;;16.33;65.22;100301.09;1710149;83;21046;-43
2021/05/21 05:38:45;;;;;;;0.17;0.17;;;;;;;16.51;64.64;100297.78;1747105;81;21086;-47
2021/05/21 05:41:11;;;;;;;0.33;0.33;;;;;;;16.70;63.05;100297.48;1740372;81;21437;-42
2021/05/21 05:43:38;;;;;;;0.10;0.10;;;;;;;16.80;61.64;100303.28;1736604;80;21050;-42
2021/05/21 05:46:09;;;;;;;0.13;0.13;;;;;;;16.90;60.64;100296.05;1676894;84;21111;-41
2021/05/21 05:48:34;;;;;;;0.08;0.08;;;;;;;16.97;59.86;100299.13;1735581;81;21140;-43
2021/05/21 05:51:00;;;;;;;1.25;0.30;;;;;;;17.08;60.49;100303.16;1730730;81;21081;-47
2021/05/21 05:53:26;;;;;;;0.25;0.25;;;;;;;17.24;59.96;100302.09;1722841;81;21133;-41
2021/05/21 05:55:53;;;;;;;0.28;0.20;;;;;;;17.33;59.09;100295.16;1719872;81;21042;-44
2021/05/21 05:58:19;;;;;;;0.13;0.13;;;;;;;17.40;59.01;100301.00;1727854;81;21624;-42
2021/05/21 06:00:46;;;;;;;0.13;0.13;;;;;;;17.51;58.94;100304.23;1732119;81;21029;-47
2021/05/21 06:03:13;;;;;;;0.10;0.10;;;;;;;17.69;58.95;100303.59;1745250;81;21627;-42
2021/05/21 06:05:39;;;;;;;0.10;0.10;;;;;;;17.82;55.55;100302.59;1749519;81;21036;-47
2021/05/21 06:08:07;;;;;;;2.62;0.80;;;;;;;17.73;55.35;100310.90;1744301;81;21013;-47
2021/05/21 06:10:34;;;;;;;0.10;0.10;;;;;;;17.59;56.57;100311.09;1742903;81;21051;-42
2021/05/21 06:13:06;;;;;;;0.15;0.15;;;;;;;17.64;57.28;100308.73;1734746;81;21570;-47
2021/05/21 06:15:33;;;;;;;0.10;0.10;;;;;;;17.79;57.13;100308.76;1732397;81;21070;-47
2021/05/21 06:17:59;;;;;;;0.30;0.20;;;;;;;17.84;55.42;100308.60;1751811;81;21101;-42
2021/05/21 06:20:27;;;;;;;0.10;0.10;;;;;;;17.74;54.23;100318.03;1740811;80;21086;-44
2021/05/21 06:22:56;;;;;;;0.20;0.20;;;;;;;17.48;55.10;100306.25;1746927;81;21069;-47
2021/05/21 06:25:27;;;;;;;0.33;0.10;;;;;;;17.35;56.98;100319.13;1723161;81;21057;-43
2021/05/21 06:27:51;;;;;;;0.30;0.28;;;;;;;17.46;57.99;100321.80;1736015;80;21015;-47
2021/05/21 06:30:18;;;;;;;0.20;0.20;;;;;;;17.59;58.27;100322.73;1739168;81;21775;-42
2021/05/21 06:32:45;;;;;;;0.88;0.33;;;;;;;17.69;58.51;100327.89;1728927;81;21081;-47
2021/05/21 06:35:12;;;;;;;0.13;0.13;;;;;;;17.83;57.55;100329.11;1748605;81;21560;-47
2021/05/21 06:37:39;;;;;;;0.20;0.20;;;;;;;17.92;57.10;100319.38;1739879;81;21043;-45
2021/05/21 06:40:07;;;;;;;0.62;0.62;;;;;;;17.99;56.23;100326.02;1742365;81;21546;-48
2021/05/21 06:42:33;;;;;;;0.10;0.10;;;;;;;18.00;56.69;100329.03;1743142;81;21101;-42
2021/05/21 06:45:00;;;;;;;0.60;0.35;;;;;;;18.05;57.23;100324.70;1742791;81;21066;-47
2021/05/21 06:47:27;;;;;;;0.15;0.15;;;;;;;18.18;57.54;100324.22;1743710;81;21038;-41
2021/05/21 06:49:53;;;;;;;0.15;0.15;;;;;;;18.31;56.36;100329.27;1725671;81;21003;-42
2021/05/21 06:52:20;;;;;;;0.20;0.20;;;;;;;18.35;57.35;100336.34;1741341;82;21022;-47
2021/05/21 06:54:47;;;;;;;0.50;0.33;;;;;;;18.31;56.83;100337.56;1732747;80;21060;-47
2021/05/21 06:57:13;;;;;;;0.15;0.15;;;;;;;18.25;57.32;100340.30;1735729;81;21066;-47
2021/05/21 06:59:40;;;;;;;0.17;0.17;;;;;;;18.26;57.67;100339.94;1732050;81;21563;-42
2021/05/21 07:02:08;;;;;;;0.47;0.45;;;;;;;18.34;56.53;100341.03;1745508;81;21595;-43
2021/05/21 07:04:34;;;;;;;0.50;0.50;;;;;;;18.39;56.89;100339.46;1745649;81;21089;-47
2021/05/21 07:07:01;;;;;;;0.10;0.10;;;;;;;18.36;56.08;100342.91;1742322;81;21026;-47
2021/05/21 07:09:28;;;;;;;0.05;0.05;;;;;;;18.39;56.03;100342.23;1741434;81;21464;-48
2021/05/21 07:11:54;;;;;;;0.10;0.10;;;;;;;18.45;57.43;100342.28;1744007;81;21085;-47
2021/05/21 07:14:21;;;;;;;0.17;0.17;;;;;;;18.60;57.21;100340.08;1739049;79;20968;-47
2021/05/21 07:16:49;;;;;;;0.47;0.25;;;;;;;18.71;55.77;100344.05;1748968;81;21085;-42
2021/05/21 07:19:18;;;;;;;0.37;0.37;;;;;;;18.77;55.32;100348.84;1727921;81;21642;-42
2021/05/21 07:21:48;;;;;;;0.13;0.13;;;;;;;18.59;54.65;100337.86;1755527;80;21557;-47
2021/05/21 07:24:14;;;;;;;0.20;0.20;;;;;;;18.37;54.80;100341.77;1718026;81;20937;-47
2021/05/21 07:26:41;;;;;;;0.10;0.10;;;;;;;18.26;56.03;100339.94;1726554;81;21013;-47
2021/05/21 07:29:08;;;;;;;0.30;0.17;;;;;;;18.32;55.85;100346.09;1730948;81;21618;-42
2021/05/21 07:31:35;;;;;;;0.13;0.10;;;;;;;18.54;56.47;100342.80;1720806;81;21070;-42
2021/05/21 07:34:02;;;;;;;0.10;0.10;;;;;;;18.73;54.30;100339.58;1746237;81;21018;-42
2021/05/21 07:36:31;;;;;;;0.10;0.10;;;;;;;18.65;53.86;100349.56;1746418;81;21062;-42
2021/05/21 07:38:58;;;;;;;0.33;0.20;;;;;;;18.58;53.93;100342.37;1737507;81;21077;-41
2021/05/21 07:41:26;;;;;;;0.00;0.00;;;;;;;18.59;53.88;100345.36;1708552;83;21079;-41
2021/05/21 07:43:53;;;;;;;0.00;0.00;;;;;;;18.68;53.40;100343.35;1709732;82;21064;-42
2021/05/21 07:46:22;;;;;;;0.00;0.00;;;;;;;18.86;53.32;100337.94;1708528;83;21040;-47
2021/05/21 07:48:49;;;;;;;0.57;0.20;;;;;;;19.21;50.05;100341.79;1733184;82;20962;-42
2021/05/21 07:51:17;;;;;;;0.13;0.13;;;;;;;19.21;50.05;100341.79;1749143;81;20991;-42
2021/05/21 07:53:43;;;;;;;0.10;0.10;;;;;;;19.07;50.91;100344.06;1739556;81;21038;-42
2021/05/21 07:56:10;;;;;;;0.08;0.08;;;;;;;18.90;51.56;100343.62;1738326;81;21536;-42
2021/05/21 07:58:37;;;;;;;0.00;0.00;;;;;;;19.01;49.61;100354.51;1748634;81;21038;-48
2021/05/21 08:01:04;;;;;;;0.33;0.20;;;;;;;18.95;50.11;100335.11;1762164;80;21130;-41
2021/05/21 08:03:31;;;;;;;0.10;0.10;;;;;;;18.95;50.11;100335.11;1768373;79;21151;-42
2021/05/21 08:06:00;;;;;;;0.17;0.17;;;;;;;19.01;48.69;100350.36;1726852;81;21521;-43
2021/05/21 08:08:27;;;;;;;0.00;0.00;;;;;;;18.99;48.36;100348.53;1747831;81;21049;-42
2021/05/21 08:10:56;;;;;;;0.70;0.40;;;;;;;19.07;48.79;100337.14;1745660;81;21078;-42
2021/05/21 08:13:23;;;;;;;0.00;0.00;;;;;;;19.16;47.30;100333.69;1737174;80;21085;-43
2021/05/21 08:15:51;;;;;;;0.10;0.10;;;;;;;19.32;47.43;100336.66;1725416;81;21074;-42
2021/05/21 08:18:18;;;;;;;0.00;0.00;;;;;;;19.44;47.38;100339.47;1747209;81;21849;-47
2021/05/21 08:20:45;;;;;;;0.00;0.00;;;;;;;19.46;47.45;100341.32;1749277;80;21034;-42
2021/05/21 08:23:13;;;;;;;0.00;0.00;;;;;;;19.52;47.02;100348.25;1740197;81;21065;-47
2021/05/21 08:25:40;;;;;;;0.00;0.00;;;;;;;19.68;44.09;100347.07;1734516;81;21149;-42
2021/05/21 08:28:06;;;;;;;0.00;0.00;;;;;;;19.68;44.09;100347.07;1751025;81;21078;-43
2021/05/21 08:30:35;;;;;;;0.00;0.00;;;;;;;19.71;43.12;100350.53;1738137;81;21483;-42
2021/05/21 08:33:01;;;;;;;0.00;0.00;;;;;;;19.70;44.96;100352.25;1740453;81;21091;-42
2021/05/21 08:35:28;;;;;;;0.10;0.10;;;;;;;19.75;46.13;100356.19;1719870;83;21022;-41
2021/05/21 08:37:54;;;;;;;0.10;0.10;;;;;;;19.89;45.49;100350.33;1732937;81;21043;-43
2021/05/21 08:40:27;;;;;;;0.00;0.00;;;;;;;19.80;44.46;100353.78;1730028;80;21619;-47
2021/05/21 08:42:58;;;;;;;0.05;0.05;;;;;;;19.80;44.46;100353.78;1725555;81;21561;-42
2021/05/21 08:45:25;;;;;;;0.00;0.00;;;;;;;19.84;44.95;100363.03;1748833;80;21086;-48
2021/05/21 08:47:52;;;;;;;0.10;0.10;;;;;;;19.97;45.18;100366.05;1749237;81;21067;-42
2021/05/21 08:50:19;;;;;;;0.00;0.00;;;;;;;20.10;45.56;100355.22;1748766;81;21145;-42
2021/05/21 08:52:47;;;;;;;0.10;0.10;;;;;;;20.26;44.53;100358.68;1737400;81;21539;-42
2021/05/21 08:55:16;;;;;;;0.00;0.00;;;;;;;20.45;45.75;100360.84;1734992;80;21043;-48
2021/05/21 08:57:43;;;;;;;0.10;0.10;;;;;;;20.56;45.51;100344.80;1720098;82;21042;-47
2021/05/21 09:00:11;;;;;;;0.00;0.00;;;;;;;20.48;44.88;100356.81;1734042;81;21623;-41
2021/05/21 09:02:39;;;;;;;0.20;0.20;;;;;;;20.43;43.80;100358.44;1684797;83;21067;-48
2021/05/21 09:05:10;;;;;;;0.20;0.20;;;;;;;20.41;43.56;100361.55;1742129;81;21966;-47
2021/05/21 09:07:38;;;;;;;0.17;0.17;;;;;;;20.35;43.47;100356.02;1751131;80;21151;-41
2021/05/21 09:10:12;;;;;;;0.00;0.00;;;;;;;20.23;44.61;100364.89;1741780;81;21135;-41
2021/05/21 09:12:52;;;;;;;0.00;0.00;;;;;;;20.08;43.74;100364.45;1731487;81;21169;-42
2021/05/21 09:15:23;;;;;;;0.10;0.10;;;;;;;19.94;43.63;100366.16;1750957;81;21130;-47
2021/05/21 09:17:58;;;;;;;0.17;0.10;;;;;;;19.88;45.72;100367.55;1730195;81;21042;-42
2021/05/21 09:20:40;;;;;;;0.10;0.10;;;;;;;19.75;43.66;100366.69;1720228;82;21082;-42
2021/05/21 09:23:13;;;;;;;0.28;0.10;;;;;;;19.60;44.13;100363.17;1681455;84;21544;-47
2021/05/21 09:25:53;;;;;;;0.35;0.35;;;;;;;19.49;45.38;100367.54;1682204;83;21130;-42
2021/05/21 09:28:38;;;;;;;0.00;0.00;;;;;;;19.44;44.95;100367.17;1689145;83;21023;-48
2021/05/21 09:31:17;;;;;;;0.15;0.15;;;;;;;19.44;45.75;100369.14;1685521;83;21086;-44
2021/05/21 09:33:46;;;;;;;0.28;0.20;;;;;;;19.43;45.87;100370.27;1716794;81;21618;-47
2021/05/21 09:36:12;;;;;;;0.03;0.03;;;;;;;19.35;46.30;100369.21;1713505;82;21066;-43
2021/05/21 09:38:50;;;;;;;0.20;0.20;;;;;;;19.34;46.30;100373.95;1706711;81;21047;-48
2021/05/21 09:41:17;;;;;;;0.10;0.10;;;;;;;19.31;46.35;100365.49;1744219;81;21020;-44
2021/05/21 09:43:57;;;;;;;0.08;0.08;;;;;;;19.31;46.51;100366.33;1722577;81;22424;-47
2021/05/21 09:46:23;;;;;;;0.10;0.10;;;;;;;19.33;46.78;100368.16;1721465;81;21046;-47
2021/05/21 09:48:51;;;;;;;0.10;0.10;;;;;;;19.39;46.01;100355.50;1723547;81;21082;-45
2021/05/21 09:51:19;;;;;;;0.05;0.05;;;;;;;19.39;46.01;100355.50;1722605;81;21074;-47
2021/05/21 09:53:50;;;;;;;0.00;0.00;;;;;;;19.46;45.49;100358.50;1747204;81;21073;-47
2021/05/21 09:56:20;;;;;;;0.05;0.05;;;;;;;19.46;44.60;100364.88;1679248;83;21119;-47
2021/05/21 09:58:46;;;;;;;0.40;0.10;;;;;;;19.44;44.57;100361.63;1704346;84;21067;-43
2021/05/21 10:01:20;;;;;;;0.20;0.15;;;;;;;19.42;44.66;100354.23;1706724;83;21066;-42
2021/05/21 10:03:54;;;;;;;0.10;0.10;;;;;;;19.41;44.16;100354.01;1703651;83;21043;-47
2021/05/21 10:06:25;;;;;;;1.47;0.17;;;;;;;19.39;44.54;100348.00;1703802;83;21099;-42
2021/05/21 10:08:55;;;;;;;0.20;0.20;;;;;;;19.38;44.08;100351.09;1722403;81;21047;-42
2021/05/21 10:11:19;;;;;;;0.10;0.10;;;;;;;19.38;44.86;100348.33;1705374;82;21037;-41
2021/05/21 10:13:46;;;;;;;0.10;0.10;;;;;;;19.38;44.86;100348.33;1740309;81;21024;-47
2021/05/21 10:16:15;;;;;;;0.00;0.00;;;;;;;19.37;44.66;100353.64;1710900;82;20994;-42
2021/05/21 10:18:44;;;;;;;0.30;0.10;;;;;;;19.35;44.15;100363.67;1731943;81;21102;-47
2021/05/21 10:21:10;;;;;;;0.08;0.08;;;;;;;19.35;44.15;100363.67;1728299;81;21054;-42
2021/05/21 10:23:41;;;;;;;0.00;0.00;;;;;;;19.37;43.37;100361.38;1749310;81;21023;-47
2021/05/21 10:26:16;;;;;;;0.10;0.10;;;;;;;19.38;43.66;100370.48;1749435;81;21545;-43
2021/05/21 10:28:45;;;;;;;0.10;0.10;;;;;;;19.43;44.24;100378.00;1749529;81;21512;-42
2021/05/21 10:31:14;;;;;;;0.78;0.30;;;;;;;19.43;44.24;100378.00;1743216;81;21471;-48
2021/05/21 10:33:43;;;;;;;0.00;0.00;;;;;;;19.49;44.77;100389.70;1718901;82;21091;-42
2021/05/21 10:36:28;;;;;;;0.20;0.10;;;;;;;19.53;43.19;100392.02;1728706;81;21508;-46
2021/05/21 10:39:21;;;;;;;0.00;0.00;;;;;;;19.61;43.45;100388.36;1746863;81;21071;-41
2021/05/21 10:42:20;;;;;;;0.10;0.10;;;;;;;19.61;43.45;100388.36;1730567;82;21030;-42
2021/05/21 10:45:09;;;;;;;0.00;0.00;;;;;;;19.65;43.71;100398.98;1749263;81;21055;-42
2021/05/21 10:47:37;;;;;;;0.08;0.08;;;;;;;19.65;43.71;100398.98;1741866;81;21038;-41
2021/05/21 10:50:09;;;;;;;0.10;0.10;;;;;;;19.62;43.25;100394.13;1741422;81;21025;-48
2021/05/21 10:52:51;;;;;;;0.00;0.00;;;;;;;19.70;43.36;100401.56;1746579;81;21167;-44
2021/05/21 10:55:20;;;;;;;0.00;0.00;;;;;;;19.83;44.38;100397.44;1710294;81;21129;-43
2021/05/21 10:58:00;;;;;;;0.05;0.05;;;;;;;19.96;41.74;100400.48;1729884;81;21050;-47
2021/05/21 11:00:26;;;;;;;0.17;0.17;;;;;;;19.92;42.55;100400.94;1733291;80;21066;-48
2021/05/21 11:02:54;;;;;;;0.30;0.25;;;;;;;19.83;42.78;100405.76;1726296;82;21327;-43
2021/05/21 11:05:36;;;;;;;0.00;0.00;;;;;;;19.85;42.79;100404.27;1742338;81;21106;-41
2021/05/21 11:08:07;;;;;;;;;;;;;;;19.88;41.28;100399.44;1744180;81;20998;-48
2021/05/21 11:10:41;;;;;;;0.20;0.20;;;;;;;19.85;42.94;100408.42;1715944;82;20815;-47
2021/05/21 11:13:13;;;;;;;0.08;0.08;;;;;;;19.86;42.42;100409.25;1739026;81;21025;-47
2021/05/21 11:15:44;;;;;;;0.00;0.00;;;;;;;19.97;43.89;100415.96;1735379;81;21084;-44
2021/05/21 11:18:22;;;;;;;0.00;0.00;;;;;;;20.14;43.09;100406.05;1716894;81;21649;-48
2021/05/21 11:21:12;;;;;;;0.08;0.08;;;;;;;20.38;43.48;100397.52;1711354;82;22919;-42
2021/05/21 11:23:42;;;;;;;0.00;0.00;;;;;;;20.69;42.31;100411.41;1749551;80;21636;-48
2021/05/21 11:26:17;;;;;;;0.70;0.25;;;;;;;20.92;43.42;100401.43;1729364;82;21077;-48
2021/05/21 11:28:52;;;;;;;0.85;0.62;;;;;;;21.37;43.07;100403.14;1721104;81;21009;-43